createdAt,value
2022-09-23T00:01:21.737Z,2.25
2022-09-23T00:03:50.628Z,3.50
2022-09-23T00:06:19.384Z,3.00
2022-09-23T00:08:49.469Z,3.00
2022-09-23T00:11:19.422Z,3.00
2022-09-23T00:13:48.861Z,3.00
2022-09-23T00:16:18.089Z,2.00
2022-09-23T00:18:46.130Z,3.00
2022-09-23T00:21:14.947Z,2.00
2022-09-23T00:23:43.553Z,3.00
2022-09-23T00:26:12.263Z,3.00
2022-09-23T00:28:41.607Z,2.75
2022-09-23T00:31:11.395Z,3.00
2022-09-23T00:33:40.522Z,3.00
2022-09-23T00:36:10.974Z,2.00
2022-09-23T00:38:39.013Z,2.75
2022-09-23T00:41:07.528Z,2.25
2022-09-23T00:43:44.200Z,2.00
2022-09-23T00:46:13.914Z,3.50
2022-09-23T00:48:42.305Z,3.00
2022-09-23T00:51:11.619Z,2.00
2022-09-23T00:53:39.800Z,2.00
2022-09-23T00:56:08.450Z,2.00
2022-09-23T00:58:37.179Z,2.00
2022-09-23T01:01:06.826Z,2.25
2022-09-23T01:03:35.093Z,2.00
2022-09-23T01:06:02.976Z,2.50
2022-09-23T01:08:31.224Z,3.00
2022-09-23T01:11:04.074Z,2.00
2022-09-23T01:13:35.064Z,2.00
2022-09-23T01:16:06.075Z,2.00
2022-09-23T01:18:38.920Z,2.00
2022-09-23T01:21:25.754Z,2.75
2022-09-23T01:24:17.110Z,2.00
2022-09-23T01:26:57.685Z,2.00
2022-09-23T01:29:49.605Z,2.00
2022-09-23T01:32:21.156Z,2.25
2022-09-23T01:34:50.805Z,2.25
2022-09-23T01:37:21.884Z,2.00
2022-09-23T01:39:52.343Z,2.00
2022-09-23T01:42:23.633Z,1.75
2022-09-23T01:44:53.483Z,2.00
2022-09-23T01:47:23.879Z,2.75
2022-09-23T01:49:52.794Z,2.00
2022-09-23T01:52:27.615Z,2.00
2022-09-23T01:54:58.483Z,1.75
2022-09-23T01:57:28.383Z,2.25
2022-09-23T01:59:58.395Z,1.75
2022-09-23T02:02:29.260Z,2.50
2022-09-23T02:05:00.275Z,1.75
2022-09-23T02:07:30.367Z,2.00
2022-09-23T02:09:59.247Z,2.00
2022-09-23T02:12:28.578Z,2.00
2022-09-23T02:14:58.428Z,2.75
2022-09-23T02:17:29.613Z,1.75
2022-09-23T02:19:58.666Z,2.00
2022-09-23T02:22:28.113Z,2.00
2022-09-23T02:24:56.993Z,2.00
2022-09-23T02:27:26.954Z,2.00
2022-09-23T02:29:58.213Z,2.00
2022-09-23T02:32:31.808Z,2.00
2022-09-23T02:35:01.682Z,2.00
2022-09-23T02:37:38.866Z,1.00
2022-09-23T02:40:13.031Z,1.00
2022-09-23T02:42:45.563Z,2.00
2022-09-23T02:45:13.486Z,1.50
2022-09-23T02:47:44.029Z,2.25
2022-09-23T02:50:11.904Z,1.00
2022-09-23T02:52:39.794Z,1.00
2022-09-23T02:55:08.148Z,1.25
2022-09-23T02:57:36.316Z,2.00
2022-09-23T03:00:04.552Z,2.00
2022-09-23T03:02:51.759Z,2.00
2022-09-23T03:05:24.967Z,1.25
2022-09-23T03:07:59.242Z,2.00
2022-09-23T03:10:30.021Z,2.00
2022-09-23T03:13:04.530Z,1.75
2022-09-23T03:15:36.554Z,1.00
2022-09-23T03:18:10.331Z,1.50
2022-09-23T03:20:42.695Z,1.00
2022-09-23T03:23:11.702Z,1.50
2022-09-23T03:25:40.507Z,2.00
2022-09-23T03:28:08.920Z,3.00
2022-09-23T03:30:36.773Z,2.00
2022-09-23T03:33:06.067Z,2.25
2022-09-23T03:35:55.379Z,1.25
2022-09-23T03:38:24.724Z,2.00
2022-09-23T03:40:53.850Z,2.00
2022-09-23T03:43:21.770Z,1.00
2022-09-23T03:45:49.648Z,2.00
2022-09-23T03:48:17.795Z,2.00
2022-09-23T03:50:45.685Z,2.00
2022-09-23T03:53:14.226Z,2.00
2022-09-23T03:55:43.534Z,2.00
2022-09-23T03:58:11.768Z,1.50
2022-09-23T04:00:39.707Z,1.25
2022-09-23T04:03:11.577Z,1.00
2022-09-23T04:05:39.867Z,2.00
2022-09-23T04:08:08.242Z,2.00
2022-09-23T04:10:36.099Z,2.00
2022-09-23T04:13:05.621Z,3.00
2022-09-23T04:15:33.549Z,2.75
2022-09-23T04:18:01.720Z,3.50
2022-09-23T04:20:30.456Z,4.00
2022-09-23T04:22:58.299Z,4.00
2022-09-23T04:25:26.200Z,3.75
2022-09-23T04:27:54.148Z,4.00
2022-09-23T04:30:23.713Z,4.25
2022-09-23T04:32:53.300Z,5.00
2022-09-23T04:35:21.233Z,4.25
2022-09-23T04:37:49.449Z,3.25
2022-09-23T04:40:17.558Z,3.50
2022-09-23T04:42:45.521Z,3.50
2022-09-23T04:45:13.381Z,3.00
2022-09-23T04:47:43.122Z,3.00
2022-09-23T04:50:11.254Z,4.25
2022-09-23T04:52:39.151Z,3.50
2022-09-23T04:55:11.222Z,4.00
2022-09-23T04:57:39.422Z,3.00
2022-09-23T05:00:10.295Z,3.00
2022-09-23T05:02:45.342Z,3.00
2022-09-23T05:05:13.396Z,4.00
2022-09-23T05:07:41.560Z,3.00
2022-09-23T05:10:09.717Z,3.00
2022-09-23T05:12:37.577Z,4.00
2022-09-23T05:15:07.116Z,3.25
2022-09-23T05:17:37.363Z,3.00
2022-09-23T05:20:07.868Z,3.00
2022-09-23T05:22:35.709Z,3.25
2022-09-23T05:25:03.660Z,3.50
2022-09-23T05:27:31.959Z,3.00
2022-09-23T05:30:01.055Z,2.00
2022-09-23T05:32:28.972Z,2.50
2022-09-23T05:34:56.857Z,2.75
2022-09-23T05:37:26.658Z,3.00
2022-09-23T05:39:54.618Z,3.00
2022-09-23T05:42:22.506Z,3.00
2022-09-23T05:44:50.634Z,2.25
2022-09-23T05:47:18.540Z,3.25
2022-09-23T05:49:59.054Z,2.00
2022-09-23T05:52:29.172Z,2.25
2022-09-23T05:54:57.030Z,3.00
2022-09-23T05:57:25.216Z,2.00
2022-09-23T05:59:53.139Z,2.00
2022-09-23T06:02:21.223Z,3.00
2022-09-23T06:04:49.400Z,2.00
2022-09-23T06:07:17.307Z,2.00
2022-09-23T06:09:46.620Z,2.00
2022-09-23T06:12:15.196Z,2.50
2022-09-23T06:14:43.117Z,2.25
2022-09-23T06:17:11.253Z,2.25
2022-09-23T06:19:39.106Z,2.00
2022-09-23T06:22:07.013Z,2.25
2022-09-23T06:24:34.881Z,2.00
2022-09-23T06:27:04.152Z,2.00
2022-09-23T06:29:33.181Z,2.75
2022-09-23T06:32:01.225Z,2.00
2022-09-23T06:34:30.389Z,2.00
2022-09-23T06:37:04.956Z,2.00
2022-09-23T06:39:37.040Z,2.00
2022-09-23T06:42:07.704Z,2.00
2022-09-23T06:44:35.714Z,1.75
2022-09-23T06:47:04.023Z,3.00
2022-09-23T06:49:31.945Z,2.00
2022-09-23T06:51:59.799Z,3.00
2022-09-23T06:54:29.081Z,2.50
2022-09-23T06:56:56.979Z,1.00
2022-09-23T06:59:26.234Z,2.00
2022-09-23T07:01:54.286Z,2.00
2022-09-23T07:04:25.039Z,2.00
2022-09-23T07:06:57.447Z,2.00
2022-09-23T07:09:26.018Z,2.00
2022-09-23T07:11:53.875Z,2.25
2022-09-23T07:14:21.785Z,2.00
2022-09-23T07:16:51.407Z,2.25
2022-09-23T07:19:19.280Z,2.00
2022-09-23T07:21:47.252Z,2.75
2022-09-23T07:24:15.662Z,2.00
2022-09-23T07:26:45.705Z,1.00
2022-09-23T07:29:14.065Z,2.00
2022-09-23T07:31:42.062Z,2.00
2022-09-23T07:34:11.690Z,2.00
2022-09-23T07:36:40.844Z,2.00
2022-09-23T07:39:09.545Z,3.00
2022-09-23T07:41:38.104Z,3.00
2022-09-23T07:44:06.309Z,3.75
2022-09-23T07:46:35.864Z,2.75
2022-09-23T07:49:04.451Z,2.50
2022-09-23T07:51:36.466Z,3.50
2022-09-23T07:54:05.410Z,3.50
2022-09-23T07:56:33.335Z,3.00
2022-09-23T07:59:01.826Z,4.00
2022-09-23T08:01:31.640Z,4.00
2022-09-23T08:03:59.869Z,4.00
2022-09-23T08:06:27.751Z,3.00
2022-09-23T08:08:58.412Z,3.25
2022-09-23T08:11:26.564Z,4.75
2022-09-23T08:13:54.585Z,4.00
2022-09-23T08:16:22.929Z,5.00
2022-09-23T08:18:50.937Z,4.25
2022-09-23T08:21:20.322Z,5.00
2022-09-23T08:23:48.281Z,5.00
2022-09-23T08:26:21.731Z,5.00
2022-09-23T08:28:50.463Z,5.00
2022-09-23T08:31:18.421Z,4.50
2022-09-23T08:33:46.398Z,4.00
2022-09-23T08:36:14.366Z,4.00
2022-09-23T08:38:42.238Z,4.00
2022-09-23T08:41:15.836Z,4.75
2022-09-23T08:43:46.711Z,5.00
2022-09-23T08:46:14.702Z,5.25
2022-09-23T08:48:44.211Z,5.00
2022-09-23T08:51:13.984Z,4.00
2022-09-23T08:53:42.290Z,3.00
2022-09-23T08:56:14.395Z,4.25
2022-09-23T08:58:49.262Z,5.00
2022-09-23T09:01:20.515Z,4.00
2022-09-23T09:03:50.307Z,4.50
2022-09-23T09:06:19.845Z,5.25
2022-09-23T09:08:52.316Z,4.00
2022-09-23T09:11:21.111Z,5.00
2022-09-23T09:13:54.801Z,4.00
2022-09-23T09:16:58.852Z,3.75
2022-09-23T09:19:44.468Z,5.00
2022-09-23T09:22:15.030Z,4.00
2022-09-23T09:24:44.482Z,4.50
2022-09-23T09:27:13.331Z,4.25
2022-09-23T09:29:43.957Z,4.75
2022-09-23T09:32:15.217Z,4.00
2022-09-23T09:34:45.555Z,4.00
2022-09-23T09:37:15.993Z,3.75
2022-09-23T09:39:43.895Z,4.00
2022-09-23T09:42:14.931Z,4.00
2022-09-23T09:44:47.914Z,3.00
2022-09-23T09:47:26.919Z,4.00
2022-09-23T09:50:00.800Z,4.25
2022-09-23T09:52:29.981Z,4.00
2022-09-23T09:55:01.422Z,3.00
2022-09-23T09:57:35.226Z,4.00
2022-09-23T10:00:35.591Z,4.00
2022-09-23T10:03:05.072Z,3.00
2022-09-23T10:05:33.952Z,4.00
2022-09-23T10:08:22.884Z,3.00
2022-09-23T10:10:54.826Z,3.50
2022-09-23T10:13:24.075Z,4.00
2022-09-23T10:15:54.890Z,3.00
2022-09-23T10:18:27.436Z,4.00
2022-09-23T10:21:01.453Z,4.25
2022-09-23T10:23:29.820Z,3.00
2022-09-23T10:25:58.153Z,4.00
2022-09-23T10:28:48.345Z,3.25
2022-09-23T10:31:24.511Z,4.00
2022-09-23T10:33:55.041Z,4.00
2022-09-23T10:36:23.628Z,4.00
2022-09-23T10:38:54.091Z,4.75
2022-09-23T10:41:47.058Z,4.00
2022-09-23T10:44:45.854Z,5.00
2022-09-23T10:47:20.269Z,4.25
2022-09-23T10:50:09.886Z,4.00
2022-09-23T10:52:52.999Z,5.00
2022-09-23T10:55:29.799Z,4.50
2022-09-23T10:58:06.879Z,4.50
2022-09-23T11:00:41.079Z,5.00
2022-09-23T11:03:26.410Z,4.00
2022-09-23T11:06:01.724Z,4.25
2022-09-23T11:08:43.645Z,5.00
2022-09-23T11:11:17.642Z,5.75
2022-09-23T11:13:54.823Z,5.00
2022-09-23T11:16:27.586Z,4.00
2022-09-23T11:19:23.904Z,5.25
2022-09-23T11:22:01.282Z,5.00
2022-09-23T11:25:04.944Z,5.00
2022-09-23T11:27:41.411Z,5.25
2022-09-23T11:30:13.377Z,4.75
2022-09-23T11:35:35.762Z,3.25
2022-09-23T11:38:07.321Z,5.00
2022-09-23T11:40:39.865Z,4.00
2022-09-23T11:43:18.421Z,4.00
2022-09-23T11:45:47.557Z,4.00
2022-09-23T11:48:17.839Z,4.00
2022-09-23T11:50:49.283Z,4.00
2022-09-23T11:53:19.520Z,4.00
2022-09-23T11:55:57.244Z,4.00
2022-09-23T11:58:27.774Z,4.00
2022-09-23T12:01:01.202Z,3.00
2022-09-23T12:03:43.174Z,4.00
2022-09-23T12:06:16.367Z,4.00
2022-09-23T12:08:45.315Z,4.25
2022-09-23T12:11:21.542Z,3.25
2022-09-23T12:13:51.458Z,3.00
2022-09-23T12:16:53.802Z,3.00
2022-09-23T12:19:34.155Z,3.25
2022-09-23T12:22:14.773Z,3.75
2022-09-23T12:24:47.724Z,3.00
2022-09-23T12:27:23.947Z,4.00
2022-09-23T12:29:56.051Z,4.00
2022-09-23T12:32:25.050Z,4.00
2022-09-23T12:34:52.972Z,4.00
2022-09-23T12:37:28.064Z,4.50
2022-09-23T12:39:59.497Z,4.00
2022-09-23T12:42:30.941Z,5.00
2022-09-23T12:45:34.653Z,4.00
2022-09-23T12:48:04.146Z,4.50
2022-09-23T12:50:51.584Z,4.00
2022-09-23T12:53:57.320Z,4.50
2022-09-23T12:57:04.619Z,4.50
2022-09-23T12:59:33.813Z,6.50
2022-09-23T13:02:25.586Z,4.75
2022-09-23T13:05:27.466Z,5.00
2022-09-23T13:07:59.366Z,4.50
2022-09-23T13:10:29.834Z,6.00
2022-09-23T13:12:57.710Z,5.00
2022-09-23T13:15:30.309Z,4.50
2022-09-23T13:18:26.209Z,5.00
2022-09-23T13:20:56.470Z,4.00
2022-09-23T13:23:25.341Z,4.00
2022-09-23T13:25:55.732Z,4.00
2022-09-23T13:28:40.729Z,3.75
2022-09-23T13:31:15.027Z,3.25
2022-09-23T13:33:44.169Z,4.00
2022-09-23T13:36:14.171Z,4.00
2022-09-23T13:38:42.467Z,4.00
2022-09-23T13:41:14.931Z,4.00
2022-09-23T13:43:43.681Z,4.00
2022-09-23T13:46:14.542Z,3.50
2022-09-23T13:48:44.357Z,4.00
2022-09-23T13:51:12.948Z,5.00
2022-09-23T13:53:40.869Z,4.00
2022-09-23T13:56:13.022Z,5.00
2022-09-23T13:58:43.404Z,4.00
2022-09-23T14:01:17.006Z,4.50
2022-09-23T14:03:45.242Z,5.00
2022-09-23T14:06:14.724Z,5.00
2022-09-23T14:08:43.474Z,4.25
2022-09-23T14:11:15.985Z,4.75
2022-09-23T14:13:45.621Z,4.00
2022-09-23T14:16:15.129Z,5.00
2022-09-23T14:18:45.244Z,4.25
2022-09-23T14:21:29.366Z,4.00
2022-09-23T14:23:57.476Z,5.00
2022-09-23T14:26:25.745Z,4.00
2022-09-23T14:28:55.082Z,4.00
2022-09-23T14:31:23.912Z,4.00
2022-09-23T14:33:51.912Z,4.00
2022-09-23T14:36:37.326Z,5.00
2022-09-23T14:39:05.724Z,4.50
2022-09-23T14:41:36.061Z,3.25
2022-09-23T14:44:05.453Z,3.75
2022-09-23T14:46:35.003Z,4.00
2022-09-23T14:49:05.790Z,4.50
2022-09-23T14:51:37.115Z,5.00
2022-09-23T14:54:42.194Z,4.25
2022-09-23T14:57:24.430Z,4.75
2022-09-23T14:59:54.896Z,4.50
2022-09-23T15:02:31.132Z,5.00
2022-09-23T15:05:18.135Z,5.00
2022-09-23T15:07:49.790Z,4.00
2022-09-23T15:10:23.640Z,3.75
2022-09-23T15:12:53.460Z,5.00
2022-09-23T15:15:24.375Z,5.00
2022-09-23T15:17:52.260Z,5.00
2022-09-23T15:20:23.956Z,4.00
2022-09-23T15:22:53.679Z,4.00
2022-09-23T15:25:22.625Z,4.00
2022-09-23T15:27:57.932Z,4.00
2022-09-23T15:30:27.303Z,4.00
2022-09-23T15:32:55.288Z,5.00
2022-09-23T15:35:26.679Z,4.00
2022-09-23T15:37:57.091Z,4.25
2022-09-23T15:40:25.836Z,3.00
2022-09-23T15:42:55.454Z,3.25
2022-09-23T15:45:30.144Z,4.25
2022-09-23T15:47:59.706Z,4.00
2022-09-23T15:50:28.331Z,4.50
2022-09-23T15:52:56.309Z,5.00
2022-09-23T15:55:24.305Z,3.25
2022-09-23T15:57:52.570Z,4.75
2022-09-23T16:00:21.348Z,4.00
2022-09-23T16:02:50.657Z,3.00
2022-09-23T16:05:22.748Z,4.75
2022-09-23T16:07:52.337Z,3.00
2022-09-23T16:10:21.701Z,3.50
2022-09-23T16:12:49.894Z,5.00
2022-09-23T16:15:19.283Z,4.00
2022-09-23T16:17:47.563Z,3.75
2022-09-23T16:20:17.858Z,3.75
2022-09-23T16:22:47.932Z,3.25
2022-09-23T16:25:15.861Z,3.50
2022-09-23T16:27:43.785Z,3.00
2022-09-23T16:30:12.675Z,3.00
2022-09-23T16:32:40.563Z,4.00
2022-09-23T16:35:09.796Z,3.00
2022-09-23T16:37:39.373Z,3.75
2022-09-23T16:40:09.744Z,3.00
2022-09-23T16:42:38.317Z,2.50
2022-09-23T16:45:08.541Z,3.50
2022-09-23T16:47:36.765Z,3.00
2022-09-23T16:50:05.198Z,3.00
2022-09-23T16:52:33.113Z,2.75
2022-09-23T16:55:02.449Z,2.00
2022-09-23T16:57:30.713Z,3.00
2022-09-23T17:00:16.177Z,3.00
2022-09-23T17:03:01.678Z,2.25
2022-09-23T17:05:29.638Z,3.00
2022-09-23T17:07:58.246Z,3.00
2022-09-23T17:10:27.558Z,3.00
2022-09-23T17:12:55.562Z,3.00
2022-09-23T17:15:23.488Z,2.00
2022-09-23T17:17:51.677Z,3.00
2022-09-23T17:20:20.153Z,2.00
2022-09-23T17:22:48.259Z,3.00
2022-09-23T17:25:16.520Z,2.50
2022-09-23T17:27:45.834Z,3.00
2022-09-23T17:30:14.564Z,3.00
2022-09-23T17:32:42.495Z,3.00
2022-09-23T17:35:10.895Z,2.50
2022-09-23T17:37:39.224Z,2.50
2022-09-23T17:40:08.303Z,3.00
2022-09-23T17:42:41.023Z,2.00
2022-09-23T17:45:12.529Z,3.00
2022-09-23T17:47:41.856Z,2.00
2022-09-23T17:50:10.332Z,2.00
2022-09-23T17:52:38.244Z,3.00
2022-09-23T17:55:07.340Z,3.00
2022-09-23T17:57:35.589Z,2.25
2022-09-23T18:00:03.909Z,3.00
2022-09-23T18:02:33.238Z,3.00
2022-09-23T18:05:01.473Z,3.00
2022-09-23T18:07:29.405Z,2.50
2022-09-23T18:09:57.318Z,2.50
2022-09-23T18:12:25.238Z,3.00
2022-09-23T18:14:53.238Z,3.25
2022-09-23T18:17:21.395Z,2.75
2022-09-23T18:19:50.726Z,2.00
2022-09-23T18:22:18.679Z,3.00
2022-09-23T18:24:46.653Z,3.00
2022-09-23T18:27:14.608Z,3.00
2022-09-23T18:29:42.567Z,3.00
2022-09-23T18:32:14.098Z,2.25
2022-09-23T18:34:42.396Z,2.25
2022-09-23T18:37:16.056Z,3.50
2022-09-23T18:39:44.688Z,3.00
2022-09-23T18:42:13.081Z,3.00
2022-09-23T18:44:41.209Z,2.00
2022-09-23T18:47:29.393Z,2.00
2022-09-23T18:50:14.549Z,2.25
2022-09-23T18:52:43.837Z,3.00
2022-09-23T18:55:12.689Z,3.00
2022-09-23T18:57:41.209Z,3.00
2022-09-23T19:00:11.616Z,3.00
2022-09-23T19:02:39.556Z,3.00
2022-09-23T19:05:08.547Z,3.75
2022-09-23T19:07:36.791Z,3.00
2022-09-23T19:10:06.976Z,4.25
2022-09-23T19:12:34.843Z,3.00
2022-09-23T19:15:02.782Z,4.50
2022-09-23T19:17:31.044Z,5.25
2022-09-23T19:19:59.089Z,5.00
2022-09-23T19:22:27.113Z,5.00
2022-09-23T19:24:55.006Z,5.00
2022-09-23T19:27:24.341Z,6.00
2022-09-23T19:29:52.240Z,6.00
2022-09-23T19:32:20.258Z,6.00
2022-09-23T19:34:48.409Z,6.00
2022-09-23T19:37:16.576Z,5.25
2022-09-23T19:39:44.706Z,5.00
2022-09-23T19:42:12.714Z,5.25
2022-09-23T19:44:42.338Z,5.25
2022-09-23T19:47:15.470Z,6.00
2022-09-23T19:49:43.518Z,6.00
2022-09-23T19:52:11.419Z,7.00
2022-09-23T19:54:39.363Z,6.25
2022-09-23T19:57:08.997Z,7.00
2022-09-23T19:59:37.713Z,5.75
2022-09-23T20:02:07.051Z,6.00
2022-09-23T20:04:35.432Z,6.00
2022-09-23T20:07:04.495Z,6.25
2022-09-23T20:09:32.376Z,6.00
2022-09-23T20:12:00.305Z,6.00
2022-09-23T20:14:28.270Z,6.00
2022-09-23T20:16:56.425Z,5.00
2022-09-23T20:19:25.710Z,6.50
2022-09-23T20:22:07.477Z,6.50
2022-09-23T20:24:35.403Z,6.00
2022-09-23T20:27:11.234Z,6.75
2022-09-23T20:29:39.194Z,6.50
2022-09-23T20:32:07.161Z,6.00
2022-09-23T20:34:36.432Z,6.00
2022-09-23T20:37:05.598Z,6.25
2022-09-23T20:39:33.493Z,6.50
2022-09-23T20:42:02.648Z,7.50
2022-09-23T20:44:30.583Z,7.00
2022-09-23T20:46:58.493Z,7.00
2022-09-23T20:49:26.473Z,7.00
2022-09-23T20:51:55.824Z,7.00
2022-09-23T20:54:23.771Z,8.00
2022-09-23T20:56:52.923Z,7.25
2022-09-23T20:59:20.845Z,7.00
2022-09-23T21:01:51.939Z,8.00
2022-09-23T21:04:19.957Z,8.00
2022-09-23T21:06:48.161Z,8.00
2022-09-23T21:09:17.469Z,7.00
2022-09-23T21:11:45.402Z,8.00
2022-09-23T21:14:13.357Z,8.50
2022-09-23T21:16:41.616Z,7.50
2022-09-23T21:19:09.554Z,6.75
2022-09-23T21:21:37.521Z,8.00
2022-09-23T21:24:39.764Z,7.00
2022-09-23T21:26:55.366Z,8.00
2022-09-23T21:29:23.278Z,9.00
2022-09-23T21:31:51.248Z,8.00
2022-09-23T21:34:19.452Z,7.50
2022-09-23T21:36:48.087Z,7.00
2022-09-23T21:39:16.101Z,8.00
2022-09-23T21:41:44.072Z,8.25
2022-09-23T21:44:13.425Z,8.00
2022-09-23T21:46:41.389Z,8.00
2022-09-23T21:49:09.493Z,8.00
2022-09-23T21:51:40.532Z,7.00
2022-09-23T21:54:10.354Z,8.00
2022-09-23T21:56:38.267Z,8.25
2022-09-23T21:59:07.692Z,8.75
2022-09-23T22:01:40.124Z,7.25
2022-09-23T22:04:10.325Z,7.75
2022-09-23T22:06:40.350Z,8.25
2022-09-23T22:09:09.899Z,7.00
2022-09-23T22:11:55.709Z,8.00
2022-09-23T22:14:25.515Z,9.00
2022-09-23T22:16:55.972Z,9.50
2022-09-23T22:19:25.178Z,9.00
2022-09-23T22:21:53.663Z,8.00
2022-09-23T22:24:21.628Z,9.00
2022-09-23T22:26:49.535Z,8.75
2022-09-23T22:29:34.569Z,8.50
2022-09-23T22:32:21.378Z,9.00
2022-09-23T22:34:50.932Z,8.00
2022-09-23T22:37:21.224Z,8.00
2022-09-23T22:39:49.108Z,8.50
2022-09-23T22:42:17.227Z,8.00
2022-09-23T22:44:45.564Z,8.50
2022-09-23T22:47:15.275Z,8.00
2022-09-23T22:49:43.188Z,8.00
2022-09-23T22:52:11.349Z,9.00
2022-09-23T22:54:39.282Z,10.00
2022-09-23T22:57:07.557Z,7.75
2022-09-23T22:59:35.467Z,9.00
2022-09-23T23:02:03.575Z,8.00
2022-09-23T23:04:33.599Z,8.00
2022-09-23T23:07:02.661Z,7.50
2022-09-23T23:09:30.539Z,8.00
2022-09-23T23:11:58.455Z,7.50
2022-09-23T23:14:27.981Z,8.00
2022-09-23T23:16:56.739Z,7.50
2022-09-23T23:19:24.825Z,8.50
2022-09-23T23:21:54.078Z,8.00
2022-09-23T23:24:23.595Z,8.25
2022-09-23T23:26:51.677Z,8.50
2022-09-23T23:29:20.332Z,7.25
2022-09-23T23:31:48.320Z,8.75
2022-09-23T23:34:17.616Z,8.00
2022-09-23T23:36:45.912Z,7.00
2022-09-23T23:39:15.292Z,8.25
2022-09-23T23:41:43.197Z,7.00
2022-09-23T23:44:12.913Z,8.00
2022-09-23T23:46:41.201Z,8.00
2022-09-23T23:49:09.221Z,7.25
2022-09-23T23:51:37.155Z,8.00
2022-09-23T23:54:05.344Z,9.00
2022-09-23T23:56:34.707Z,8.00
2022-09-23T23:59:03.491Z,8.00
